Weather at Long Harbour Airport

Public forecast

Using degrees Celsius for public forecast. Weather courtesy of forecast.io.

Closest aviation weather report (METAR) to Long Harbour Airport

Closest report is Victoria International Airport, 12.8 nm (23.7 km) S.

2024/05/26 20:00 (retrieved 46 minutes ago)

CYYJ 262000Z 14012KT 20SM FEW016 FEW025 BKN038 OVC054 12/12 A3009 RMK SC1SC1SC5SC1 SLP193

Closest aviation forecast (TAF) to Long Harbour Airport

Closest forecast is Victoria International Airport, 12.8 nm (23.7 km) S.

2024/05/26 18:42 (retrieved 2 hours ago)

TAF CYYJ 261740Z 2618/2718 14010KT P6SM SCT015 OVC040 TEMPO 2618/2718 5SM -SHRA BR BKN015 OVC040 BECMG 2702/2704 VRB03KT RMK NXT FCST BY 270000Z